KRNH/RNH METAR and TAF weather

Enter ICAO airport designator
Station Type Date Time Source
KRNH METAR 2018/12/10 01:55 UTC NOAA

KRNH 100155Z AUTO 20004KT 10SM CLR M08/M11 A3028 RMK AO2 T10841106


Station Type Date Time Source
KRNH Decoded METAR 2018/12/10 01:55 UTC NOAA

New Richmond, New Richmond Municipal Airport, WI, United States (KRNH) 45-08-54N 092-32-17W
Dec 09, 2018 - 08:55 PM EST / 2018.12.10 0155 UTC
Wind: from the SSW (200 degrees) at 5 MPH (4 KT):0
Visibility: 10 mile(s):0
Sky conditions: clear
Temperature: 16.9 F (-8.4 C)
Windchill: 8 F (-13 C):1
Dew Point: 12.9 F (-10.6 C)
Relative Humidity: 84%
Pressure (altimeter): 30.28 in. Hg (1025 hPa)
ob: KRNH 100155Z AUTO 20004KT 10SM CLR M08/M11 A3028 RMK AO2 T10841106
cycle: 2

Station Type Date Time Source
KRNH TAF 2018/12/09 18:30 UTC NOAA

TAF KRNH 091726Z 0918/1018 21004KT P6SM SKC
FM100600 VRB03KT 3SM BR SCT015
FM101500 21007KT P6SM SKC


Example: see airport list